sensor_id;sensor_type;location;lat;lon;timestamp;P1;durP1;ratioP1;P2;durP2;ratioP2
44189;SDS011;29856;52.144;5.430;2023-12-14T00:00:40;17.42;;;11.45;;
44189;SDS011;29856;52.144;5.430;2023-12-14T00:03:05;26.13;;;15.40;;
44189;SDS011;29856;52.144;5.430;2023-12-14T00:05:31;28.75;;;17.45;;
44189;SDS011;29856;52.144;5.430;2023-12-14T00:07:56;28.85;;;17.50;;
44189;SDS011;29856;52.144;5.430;2023-12-14T00:10:22;21.50;;;13.68;;
44189;SDS011;29856;52.144;5.430;2023-12-14T00:12:47;19.55;;;13.30;;
44189;SDS011;29856;52.144;5.430;2023-12-14T00:15:13;18.77;;;12.48;;
44189;SDS011;29856;52.144;5.430;2023-12-14T00:17:38;19.10;;;13.73;;
44189;SDS011;29856;52.144;5.430;2023-12-14T00:20:04;21.05;;;14.05;;
44189;SDS011;29856;52.144;5.430;2023-12-14T00:22:30;21.15;;;14.38;;
44189;SDS011;29856;52.144;5.430;2023-12-14T00:24:55;17.25;;;13.73;;
44189;SDS011;29856;52.144;5.430;2023-12-14T00:27:21;15.98;;;12.02;;
44189;SDS011;29856;52.144;5.430;2023-12-14T00:29:46;20.00;;;14.13;;
44189;SDS011;29856;52.144;5.430;2023-12-14T00:32:12;16.15;;;11.35;;
44189;SDS011;29856;52.144;5.430;2023-12-14T00:34:37;15.27;;;11.38;;
44189;SDS011;29856;52.144;5.430;2023-12-14T00:37:03;17.92;;;12.85;;
44189;SDS011;29856;52.144;5.430;2023-12-14T00:39:28;18.58;;;12.38;;
44189;SDS011;29856;52.144;5.430;2023-12-14T00:41:54;16.60;;;11.68;;
44189;SDS011;29856;52.144;5.430;2023-12-14T00:44:19;15.13;;;11.35;;
44189;SDS011;29856;52.144;5.430;2023-12-14T00:46:45;16.70;;;12.00;;
44189;SDS011;29856;52.144;5.430;2023-12-14T00:49:10;14.63;;;11.32;;
44189;SDS011;29856;52.144;5.430;2023-12-14T00:51:36;14.95;;;11.48;;
44189;SDS011;29856;52.144;5.430;2023-12-14T00:54:01;15.18;;;12.30;;
44189;SDS011;29856;52.144;5.430;2023-12-14T00:56:27;14.60;;;11.65;;
44189;SDS011;29856;52.144;5.430;2023-12-14T00:58:52;16.30;;;11.95;;
44189;SDS011;29856;52.144;5.430;2023-12-14T01:01:17;14.77;;;12.43;;
44189;SDS011;29856;52.144;5.430;2023-12-14T01:03:43;14.73;;;11.77;;
44189;SDS011;29856;52.144;5.430;2023-12-14T01:06:08;17.17;;;12.93;;
44189;SDS011;29856;52.144;5.430;2023-12-14T01:08:34;16.02;;;11.70;;
44189;SDS011;29856;52.144;5.430;2023-12-14T01:10:59;14.63;;;12.43;;
44189;SDS011;29856;52.144;5.430;2023-12-14T01:13:25;17.40;;;12.82;;
44189;SDS011;29856;52.144;5.430;2023-12-14T01:15:50;15.88;;;11.27;;
44189;SDS011;29856;52.144;5.430;2023-12-14T01:18:16;18.45;;;12.05;;
44189;SDS011;29856;52.144;5.430;2023-12-14T01:20:41;17.42;;;12.23;;
44189;SDS011;29856;52.144;5.430;2023-12-14T01:23:07;14.77;;;11.30;;
44189;SDS011;29856;52.144;5.430;2023-12-14T01:25:32;14.65;;;10.60;;
44189;SDS011;29856;52.144;5.430;2023-12-14T01:27:58;14.63;;;11.52;;
44189;SDS011;29856;52.144;5.430;2023-12-14T01:30:23;14.18;;;10.90;;
44189;SDS011;29856;52.144;5.430;2023-12-14T01:32:49;15.48;;;11.27;;
44189;SDS011;29856;52.144;5.430;2023-12-14T01:35:14;13.38;;;10.02;;
44189;SDS011;29856;52.144;5.430;2023-12-14T01:37:40;14.07;;;11.20;;
44189;SDS011;29856;52.144;5.430;2023-12-14T01:40:05;14.52;;;10.80;;
44189;SDS011;29856;52.144;5.430;2023-12-14T01:42:31;14.13;;;11.48;;
44189;SDS011;29856;52.144;5.430;2023-12-14T01:44:56;12.95;;;10.30;;
44189;SDS011;29856;52.144;5.430;2023-12-14T01:47:22;14.70;;;11.50;;
44189;SDS011;29856;52.144;5.430;2023-12-14T01:49:47;15.80;;;11.23;;
44189;SDS011;29856;52.144;5.430;2023-12-14T01:52:13;14.52;;;11.32;;
44189;SDS011;29856;52.144;5.430;2023-12-14T01:54:38;16.58;;;12.50;;
44189;SDS011;29856;52.144;5.430;2023-12-14T01:57:04;15.32;;;11.65;;
44189;SDS011;29856;52.144;5.430;2023-12-14T01:59:30;14.88;;;11.95;;
44189;SDS011;29856;52.144;5.430;2023-12-14T02:01:56;17.98;;;12.27;;
44189;SDS011;29856;52.144;5.430;2023-12-14T02:04:22;15.23;;;11.57;;
44189;SDS011;29856;52.144;5.430;2023-12-14T02:06:49;13.32;;;11.35;;
44189;SDS011;29856;52.144;5.430;2023-12-14T02:09:15;13.43;;;11.70;;
44189;SDS011;29856;52.144;5.430;2023-12-14T02:11:40;12.30;;;10.48;;
44189;SDS011;29856;52.144;5.430;2023-12-14T02:14:08;13.65;;;11.60;;
44189;SDS011;29856;52.144;5.430;2023-12-14T02:16:34;16.05;;;11.50;;
44189;SDS011;29856;52.144;5.430;2023-12-14T02:19:00;15.18;;;11.52;;
44189;SDS011;29856;52.144;5.430;2023-12-14T02:21:25;13.15;;;11.23;;
44189;SDS011;29856;52.144;5.430;2023-12-14T02:23:51;13.85;;;11.20;;
44189;SDS011;29856;52.144;5.430;2023-12-14T02:26:17;13.35;;;11.25;;
44189;SDS011;29856;52.144;5.430;2023-12-14T02:28:42;13.93;;;11.48;;
44189;SDS011;29856;52.144;5.430;2023-12-14T02:31:08;13.23;;;11.35;;
44189;SDS011;29856;52.144;5.430;2023-12-14T02:33:33;13.13;;;10.77;;
44189;SDS011;29856;52.144;5.430;2023-12-14T02:35:59;15.55;;;12.10;;
44189;SDS011;29856;52.144;5.430;2023-12-14T02:38:25;13.70;;;11.20;;
44189;SDS011;29856;52.144;5.430;2023-12-14T02:40:50;20.70;;;11.65;;
44189;SDS011;29856;52.144;5.430;2023-12-14T02:43:16;13.43;;;10.98;;
44189;SDS011;29856;52.144;5.430;2023-12-14T02:45:41;14.02;;;11.07;;
44189;SDS011;29856;52.144;5.430;2023-12-14T02:48:07;13.13;;;11.68;;
44189;SDS011;29856;52.144;5.430;2023-12-14T02:50:32;13.45;;;11.50;;
44189;SDS011;29856;52.144;5.430;2023-12-14T02:52:58;15.32;;;12.25;;
44189;SDS011;29856;52.144;5.430;2023-12-14T02:55:23;15.13;;;12.50;;
44189;SDS011;29856;52.144;5.430;2023-12-14T02:57:49;15.52;;;11.32;;
44189;SDS011;29856;52.144;5.430;2023-12-14T03:00:14;14.10;;;12.52;;
44189;SDS011;29856;52.144;5.430;2023-12-14T03:02:40;14.32;;;11.80;;
44189;SDS011;29856;52.144;5.430;2023-12-14T03:05:05;14.63;;;11.25;;
44189;SDS011;29856;52.144;5.430;2023-12-14T03:07:31;14.48;;;11.85;;
44189;SDS011;29856;52.144;5.430;2023-12-14T03:09:56;18.48;;;12.35;;
44189;SDS011;29856;52.144;5.430;2023-12-14T03:12:22;14.20;;;10.35;;
44189;SDS011;29856;52.144;5.430;2023-12-14T03:14:47;14.75;;;11.70;;
44189;SDS011;29856;52.144;5.430;2023-12-14T03:17:13;16.10;;;11.90;;
44189;SDS011;29856;52.144;5.430;2023-12-14T03:19:41;14.13;;;11.35;;
44189;SDS011;29856;52.144;5.430;2023-12-14T03:22:07;15.55;;;12.90;;
44189;SDS011;29856;52.144;5.430;2023-12-14T03:24:34;16.05;;;12.20;;
44189;SDS011;29856;52.144;5.430;2023-12-14T03:27:03;17.48;;;12.02;;
44189;SDS011;29856;52.144;5.430;2023-12-14T03:29:29;14.32;;;12.13;;
44189;SDS011;29856;52.144;5.430;2023-12-14T03:31:58;13.93;;;11.38;;
44189;SDS011;29856;52.144;5.430;2023-12-14T03:34:24;15.70;;;12.43;;
44189;SDS011;29856;52.144;5.430;2023-12-14T03:36:49;19.55;;;12.45;;
44189;SDS011;29856;52.144;5.430;2023-12-14T03:39:15;21.40;;;13.68;;
44189;SDS011;29856;52.144;5.430;2023-12-14T03:41:41;15.65;;;13.27;;
44189;SDS011;29856;52.144;5.430;2023-12-14T03:44:07;18.80;;;13.15;;
44189;SDS011;29856;52.144;5.430;2023-12-14T03:46:32;15.10;;;12.40;;
44189;SDS011;29856;52.144;5.430;2023-12-14T03:48:58;19.90;;;12.52;;
44189;SDS011;29856;52.144;5.430;2023-12-14T03:51:23;19.00;;;13.02;;
44189;SDS011;29856;52.144;5.430;2023-12-14T03:53:48;16.42;;;13.13;;
44189;SDS011;29856;52.144;5.430;2023-12-14T03:56:14;17.02;;;13.07;;
44189;SDS011;29856;52.144;5.430;2023-12-14T03:58:39;18.05;;;13.85;;
44189;SDS011;29856;52.144;5.430;2023-12-14T04:01:05;16.65;;;12.85;;
44189;SDS011;29856;52.144;5.430;2023-12-14T04:03:30;17.63;;;12.18;;
44189;SDS011;29856;52.144;5.430;2023-12-14T04:05:56;17.45;;;12.82;;
44189;SDS011;29856;52.144;5.430;2023-12-14T04:08:21;20.15;;;12.73;;
44189;SDS011;29856;52.144;5.430;2023-12-14T04:10:47;16.70;;;11.30;;
44189;SDS011;29856;52.144;5.430;2023-12-14T04:13:12;18.40;;;11.50;;
44189;SDS011;29856;52.144;5.430;2023-12-14T04:15:38;15.38;;;10.10;;
44189;SDS011;29856;52.144;5.430;2023-12-14T04:18:03;18.70;;;11.00;;
44189;SDS011;29856;52.144;5.430;2023-12-14T04:20:32;17.80;;;11.88;;
44189;SDS011;29856;52.144;5.430;2023-12-14T04:22:57;15.60;;;11.52;;
44189;SDS011;29856;52.144;5.430;2023-12-14T04:25:23;16.42;;;11.18;;
44189;SDS011;29856;52.144;5.430;2023-12-14T04:27:48;14.70;;;10.00;;
44189;SDS011;29856;52.144;5.430;2023-12-14T04:30:15;15.93;;;11.20;;
44189;SDS011;29856;52.144;5.430;2023-12-14T04:32:40;14.70;;;10.05;;
44189;SDS011;29856;52.144;5.430;2023-12-14T04:35:06;14.23;;;10.70;;
44189;SDS011;29856;52.144;5.430;2023-12-14T04:37:32;16.83;;;10.40;;
44189;SDS011;29856;52.144;5.430;2023-12-14T04:39:58;17.73;;;10.20;;
44189;SDS011;29856;52.144;5.430;2023-12-14T04:42:23;14.73;;;9.88;;
44189;SDS011;29856;52.144;5.430;2023-12-14T04:44:48;18.52;;;10.65;;
44189;SDS011;29856;52.144;5.430;2023-12-14T04:47:14;15.50;;;11.10;;
44189;SDS011;29856;52.144;5.430;2023-12-14T04:49:39;13.13;;;8.45;;
44189;SDS011;29856;52.144;5.430;2023-12-14T04:52:05;14.23;;;10.95;;
44189;SDS011;29856;52.144;5.430;2023-12-14T04:54:31;13.60;;;9.60;;
44189;SDS011;29856;52.144;5.430;2023-12-14T04:56:56;14.45;;;9.70;;
44189;SDS011;29856;52.144;5.430;2023-12-14T04:59:22;15.95;;;10.50;;
44189;SDS011;29856;52.144;5.430;2023-12-14T05:01:47;15.27;;;10.60;;
44189;SDS011;29856;52.144;5.430;2023-12-14T05:04:13;14.35;;;9.90;;
44189;SDS011;29856;52.144;5.430;2023-12-14T05:06:38;15.18;;;10.05;;
44189;SDS011;29856;52.144;5.430;2023-12-14T05:09:04;14.70;;;10.18;;
44189;SDS011;29856;52.144;5.430;2023-12-14T05:11:29;16.20;;;11.57;;
44189;SDS011;29856;52.144;5.430;2023-12-14T05:13:55;13.52;;;10.30;;
44189;SDS011;29856;52.144;5.430;2023-12-14T05:16:20;14.32;;;9.65;;
44189;SDS011;29856;52.144;5.430;2023-12-14T05:18:46;14.55;;;10.85;;
44189;SDS011;29856;52.144;5.430;2023-12-14T05:21:16;18.35;;;10.68;;
44189;SDS011;29856;52.144;5.430;2023-12-14T05:23:42;18.90;;;11.05;;
44189;SDS011;29856;52.144;5.430;2023-12-14T05:26:07;15.52;;;10.35;;
44189;SDS011;29856;52.144;5.430;2023-12-14T05:28:33;17.23;;;9.88;;
44189;SDS011;29856;52.144;5.430;2023-12-14T05:30:58;13.82;;;9.88;;
44189;SDS011;29856;52.144;5.430;2023-12-14T05:33:24;15.32;;;9.90;;
44189;SDS011;29856;52.144;5.430;2023-12-14T05:35:49;23.33;;;9.73;;
44189;SDS011;29856;52.144;5.430;2023-12-14T05:38:15;12.95;;;9.18;;
44189;SDS011;29856;52.144;5.430;2023-12-14T05:40:40;12.50;;;9.57;;
44189;SDS011;29856;52.144;5.430;2023-12-14T05:43:06;13.65;;;9.02;;
44189;SDS011;29856;52.144;5.430;2023-12-14T05:45:31;12.73;;;8.52;;
44189;SDS011;29856;52.144;5.430;2023-12-14T05:47:57;15.20;;;9.43;;
44189;SDS011;29856;52.144;5.430;2023-12-14T05:50:22;18.42;;;10.23;;
44189;SDS011;29856;52.144;5.430;2023-12-14T05:52:48;17.30;;;10.50;;
44189;SDS011;29856;52.144;5.430;2023-12-14T05:55:13;15.13;;;8.85;;
44189;SDS011;29856;52.144;5.430;2023-12-14T05:57:38;16.63;;;9.95;;
44189;SDS011;29856;52.144;5.430;2023-12-14T06:00:05;17.27;;;9.75;;
44189;SDS011;29856;52.144;5.430;2023-12-14T06:02:31;16.38;;;9.18;;
44189;SDS011;29856;52.144;5.430;2023-12-14T06:04:57;13.63;;;8.50;;
44189;SDS011;29856;52.144;5.430;2023-12-14T06:07:22;15.30;;;7.38;;
44189;SDS011;29856;52.144;5.430;2023-12-14T06:09:48;11.05;;;7.93;;
44189;SDS011;29856;52.144;5.430;2023-12-14T06:12:13;10.23;;;7.50;;
44189;SDS011;29856;52.144;5.430;2023-12-14T06:14:39;11.07;;;6.75;;
44189;SDS011;29856;52.144;5.430;2023-12-14T06:17:04;10.60;;;7.50;;
44189;SDS011;29856;52.144;5.430;2023-12-14T06:19:29;11.50;;;8.23;;
44189;SDS011;29856;52.144;5.430;2023-12-14T06:21:55;13.35;;;8.40;;
44189;SDS011;29856;52.144;5.430;2023-12-14T06:24:20;10.98;;;7.32;;
44189;SDS011;29856;52.144;5.430;2023-12-14T06:26:46;10.23;;;7.25;;
44189;SDS011;29856;52.144;5.430;2023-12-14T06:29:12;12.10;;;7.75;;
44189;SDS011;29856;52.144;5.430;2023-12-14T06:31:37;10.93;;;7.78;;
44189;SDS011;29856;52.144;5.430;2023-12-14T06:34:03;12.07;;;7.70;;
44189;SDS011;29856;52.144;5.430;2023-12-14T06:36:30;12.35;;;7.97;;
44189;SDS011;29856;52.144;5.430;2023-12-14T06:38:56;14.88;;;7.88;;
44189;SDS011;29856;52.144;5.430;2023-12-14T06:41:22;10.25;;;7.72;;
44189;SDS011;29856;52.144;5.430;2023-12-14T06:43:48;10.05;;;7.32;;
44189;SDS011;29856;52.144;5.430;2023-12-14T06:46:14;10.48;;;7.88;;
44189;SDS011;29856;52.144;5.430;2023-12-14T06:48:40;10.93;;;7.72;;
44189;SDS011;29856;52.144;5.430;2023-12-14T06:51:06;11.10;;;7.90;;
44189;SDS011;29856;52.144;5.430;2023-12-14T06:53:32;12.60;;;8.55;;
44189;SDS011;29856;52.144;5.430;2023-12-14T06:55:57;10.93;;;7.25;;
44189;SDS011;29856;52.144;5.430;2023-12-14T06:58:23;13.10;;;8.50;;
44189;SDS011;29856;52.144;5.430;2023-12-14T07:00:48;11.13;;;7.63;;
44189;SDS011;29856;52.144;5.430;2023-12-14T07:03:14;8.32;;;6.70;;
44189;SDS011;29856;52.144;5.430;2023-12-14T07:05:39;12.77;;;7.25;;
44189;SDS011;29856;52.144;5.430;2023-12-14T07:08:05;9.52;;;7.07;;
44189;SDS011;29856;52.144;5.430;2023-12-14T07:10:30;10.25;;;7.28;;
44189;SDS011;29856;52.144;5.430;2023-12-14T07:12:56;9.85;;;6.88;;
44189;SDS011;29856;52.144;5.430;2023-12-14T07:15:22;10.75;;;7.13;;
44189;SDS011;29856;52.144;5.430;2023-12-14T07:17:47;8.00;;;6.45;;
44189;SDS011;29856;52.144;5.430;2023-12-14T07:20:13;9.65;;;7.05;;
44189;SDS011;29856;52.144;5.430;2023-12-14T07:22:38;8.82;;;6.28;;
44189;SDS011;29856;52.144;5.430;2023-12-14T07:25:04;11.48;;;7.60;;
44189;SDS011;29856;52.144;5.430;2023-12-14T07:27:30;9.60;;;6.70;;
44189;SDS011;29856;52.144;5.430;2023-12-14T07:29:55;12.48;;;7.78;;
44189;SDS011;29856;52.144;5.430;2023-12-14T07:32:21;10.57;;;6.68;;
44189;SDS011;29856;52.144;5.430;2023-12-14T07:34:46;12.85;;;8.40;;
44189;SDS011;29856;52.144;5.430;2023-12-14T07:37:12;10.80;;;7.82;;
44189;SDS011;29856;52.144;5.430;2023-12-14T07:39:38;10.32;;;8.00;;
44189;SDS011;29856;52.144;5.430;2023-12-14T07:42:03;9.98;;;8.45;;
44189;SDS011;29856;52.144;5.430;2023-12-14T07:44:29;10.57;;;7.35;;
44189;SDS011;29856;52.144;5.430;2023-12-14T07:46:54;9.75;;;8.07;;
44189;SDS011;29856;52.144;5.430;2023-12-14T07:49:24;9.25;;;7.05;;
44189;SDS011;29856;52.144;5.430;2023-12-14T07:51:50;11.27;;;7.20;;
44189;SDS011;29856;52.144;5.430;2023-12-14T07:54:15;10.75;;;7.40;;
44189;SDS011;29856;52.144;5.430;2023-12-14T07:56:41;8.32;;;7.43;;
44189;SDS011;29856;52.144;5.430;2023-12-14T07:59:06;10.40;;;8.07;;
44189;SDS011;29856;52.144;5.430;2023-12-14T08:01:32;8.50;;;6.78;;
44189;SDS011;29856;52.144;5.430;2023-12-14T08:03:58;11.18;;;8.85;;
44189;SDS011;29856;52.144;5.430;2023-12-14T08:06:24;10.57;;;7.50;;
44189;SDS011;29856;52.144;5.430;2023-12-14T08:08:49;9.60;;;7.57;;
44189;SDS011;29856;52.144;5.430;2023-12-14T08:11:15;9.82;;;7.55;;
44189;SDS011;29856;52.144;5.430;2023-12-14T08:13:40;10.80;;;7.30;;
44189;SDS011;29856;52.144;5.430;2023-12-14T08:16:06;10.02;;;7.63;;
44189;SDS011;29856;52.144;5.430;2023-12-14T08:18:32;13.02;;;8.43;;
44189;SDS011;29856;52.144;5.430;2023-12-14T08:20:58;9.35;;;7.82;;
44189;SDS011;29856;52.144;5.430;2023-12-14T08:23:23;10.25;;;7.72;;
44189;SDS011;29856;52.144;5.430;2023-12-14T08:25:49;12.25;;;7.85;;
44189;SDS011;29856;52.144;5.430;2023-12-14T08:28:14;11.90;;;8.30;;
44189;SDS011;29856;52.144;5.430;2023-12-14T08:30:40;9.90;;;7.43;;
44189;SDS011;29856;52.144;5.430;2023-12-14T08:33:05;11.77;;;8.07;;
44189;SDS011;29856;52.144;5.430;2023-12-14T08:35:31;12.20;;;7.55;;
44189;SDS011;29856;52.144;5.430;2023-12-14T08:37:56;10.20;;;7.05;;
44189;SDS011;29856;52.144;5.430;2023-12-14T08:40:21;9.98;;;6.72;;
44189;SDS011;29856;52.144;5.430;2023-12-14T08:42:47;7.97;;;6.70;;
44189;SDS011;29856;52.144;5.430;2023-12-14T08:45:12;9.90;;;7.45;;
44189;SDS011;29856;52.144;5.430;2023-12-14T08:47:38;11.18;;;7.57;;
44189;SDS011;29856;52.144;5.430;2023-12-14T08:50:04;10.52;;;7.88;;
44189;SDS011;29856;52.144;5.430;2023-12-14T08:52:30;12.20;;;7.93;;
44189;SDS011;29856;52.144;5.430;2023-12-14T08:54:56;10.95;;;8.00;;
44189;SDS011;29856;52.144;5.430;2023-12-14T08:57:21;8.52;;;7.53;;
44189;SDS011;29856;52.144;5.430;2023-12-14T08:59:47;10.07;;;7.57;;
44189;SDS011;29856;52.144;5.430;2023-12-14T09:02:12;10.18;;;8.10;;
44189;SDS011;29856;52.144;5.430;2023-12-14T09:04:37;11.63;;;8.13;;
44189;SDS011;29856;52.144;5.430;2023-12-14T09:07:03;11.35;;;8.13;;
44189;SDS011;29856;52.144;5.430;2023-12-14T09:09:29;12.65;;;8.48;;
44189;SDS011;29856;52.144;5.430;2023-12-14T09:11:56;12.25;;;8.38;;
44189;SDS011;29856;52.144;5.430;2023-12-14T09:14:22;8.93;;;6.90;;
44189;SDS011;29856;52.144;5.430;2023-12-14T09:16:47;9.13;;;7.10;;
44189;SDS011;29856;52.144;5.430;2023-12-14T09:19:13;10.77;;;7.70;;
44189;SDS011;29856;52.144;5.430;2023-12-14T09:21:38;10.18;;;7.38;;
44189;SDS011;29856;52.144;5.430;2023-12-14T09:24:04;13.25;;;8.32;;
44189;SDS011;29856;52.144;5.430;2023-12-14T09:26:29;13.30;;;8.15;;
44189;SDS011;29856;52.144;5.430;2023-12-14T09:28:55;14.75;;;8.82;;
44189;SDS011;29856;52.144;5.430;2023-12-14T09:31:20;10.45;;;7.28;;
44189;SDS011;29856;52.144;5.430;2023-12-14T09:33:46;14.88;;;8.70;;
44189;SDS011;29856;52.144;5.430;2023-12-14T09:36:11;12.02;;;8.15;;
44189;SDS011;29856;52.144;5.430;2023-12-14T09:38:37;8.90;;;7.75;;
44189;SDS011;29856;52.144;5.430;2023-12-14T09:41:02;12.30;;;7.60;;
44189;SDS011;29856;52.144;5.430;2023-12-14T09:43:28;12.10;;;8.07;;
44189;SDS011;29856;52.144;5.430;2023-12-14T09:45:54;12.38;;;8.52;;
44189;SDS011;29856;52.144;5.430;2023-12-14T09:48:20;13.18;;;8.80;;
44189;SDS011;29856;52.144;5.430;2023-12-14T09:50:47;11.15;;;8.02;;
44189;SDS011;29856;52.144;5.430;2023-12-14T09:53:13;11.13;;;8.55;;
44189;SDS011;29856;52.144;5.430;2023-12-14T09:55:39;10.35;;;8.00;;
44189;SDS011;29856;52.144;5.430;2023-12-14T09:58:04;8.30;;;6.55;;
44189;SDS011;29856;52.144;5.430;2023-12-14T10:00:33;10.98;;;7.05;;
44189;SDS011;29856;52.144;5.430;2023-12-14T10:05:47;8.30;;;6.30;;
44189;SDS011;29856;52.144;5.430;2023-12-14T10:08:13;9.57;;;6.70;;
44189;SDS011;29856;52.144;5.430;2023-12-14T10:10:40;11.40;;;6.30;;
44189;SDS011;29856;52.144;5.430;2023-12-14T10:13:05;8.82;;;6.32;;
44189;SDS011;29856;52.144;5.430;2023-12-14T10:15:39;8.15;;;6.07;;
44189;SDS011;29856;52.144;5.430;2023-12-14T10:18:09;8.77;;;6.63;;
44189;SDS011;29856;52.144;5.430;2023-12-14T10:20:34;10.35;;;6.88;;
44189;SDS011;29856;52.144;5.430;2023-12-14T10:23:00;10.93;;;6.85;;
44189;SDS011;29856;52.144;5.430;2023-12-14T10:25:25;8.93;;;6.60;;
44189;SDS011;29856;52.144;5.430;2023-12-14T10:27:51;12.93;;;7.00;;
44189;SDS011;29856;52.144;5.430;2023-12-14T10:30:17;8.60;;;6.93;;
44189;SDS011;29856;52.144;5.430;2023-12-14T10:32:42;10.23;;;7.63;;
44189;SDS011;29856;52.144;5.430;2023-12-14T10:35:08;11.52;;;6.70;;
44189;SDS011;29856;52.144;5.430;2023-12-14T10:37:35;7.57;;;6.05;;
44189;SDS011;29856;52.144;5.430;2023-12-14T10:40:02;9.48;;;6.80;;
44189;SDS011;29856;52.144;5.430;2023-12-14T10:42:30;8.25;;;6.43;;
44189;SDS011;29856;52.144;5.430;2023-12-14T10:44:59;10.73;;;7.55;;
44189;SDS011;29856;52.144;5.430;2023-12-14T10:47:27;11.35;;;7.10;;
44189;SDS011;29856;52.144;5.430;2023-12-14T10:49:53;8.48;;;6.80;;
44189;SDS011;29856;52.144;5.430;2023-12-14T10:52:20;11.65;;;6.57;;
44189;SDS011;29856;52.144;5.430;2023-12-14T10:54:47;9.68;;;6.25;;
44189;SDS011;29856;52.144;5.430;2023-12-14T10:57:17;10.48;;;5.95;;
44189;SDS011;29856;52.144;5.430;2023-12-14T10:59:42;11.05;;;6.75;;
44189;SDS011;29856;52.144;5.430;2023-12-14T11:02:08;8.82;;;6.18;;
44189;SDS011;29856;52.144;5.430;2023-12-14T11:04:53;15.07;;;7.53;;
44189;SDS011;29856;52.144;5.430;2023-12-14T11:07:32;9.37;;;7.10;;
44189;SDS011;29856;52.144;5.430;2023-12-14T11:10:37;11.70;;;7.80;;
44189;SDS011;29856;52.144;5.430;2023-12-14T11:13:17;9.40;;;6.68;;
44189;SDS011;29856;52.144;5.430;2023-12-14T11:15:47;9.48;;;6.20;;
44189;SDS011;29856;52.144;5.430;2023-12-14T11:20:49;12.20;;;7.13;;
44189;SDS011;29856;52.144;5.430;2023-12-14T11:25:50;9.68;;;6.40;;
44189;SDS011;29856;52.144;5.430;2023-12-14T11:28:17;9.68;;;6.03;;
44189;SDS011;29856;52.144;5.430;2023-12-14T11:30:45;10.88;;;7.85;;
44189;SDS011;29856;52.144;5.430;2023-12-14T11:33:12;9.25;;;6.10;;
44189;SDS011;29856;52.144;5.430;2023-12-14T11:35:38;8.63;;;6.68;;
44189;SDS011;29856;52.144;5.430;2023-12-14T11:38:04;8.25;;;7.00;;
44189;SDS011;29856;52.144;5.430;2023-12-14T11:40:29;8.93;;;6.97;;
44189;SDS011;29856;52.144;5.430;2023-12-14T11:43:01;9.48;;;6.32;;
44189;SDS011;29856;52.144;5.430;2023-12-14T11:45:27;10.18;;;8.07;;
44189;SDS011;29856;52.144;5.430;2023-12-14T11:47:53;11.50;;;7.38;;
44189;SDS011;29856;52.144;5.430;2023-12-14T11:50:19;11.07;;;7.22;;
44189;SDS011;29856;52.144;5.430;2023-12-14T11:52:45;9.95;;;6.75;;
44189;SDS011;29856;52.144;5.430;2023-12-14T11:55:10;6.43;;;5.78;;
44189;SDS011;29856;52.144;5.430;2023-12-14T11:57:36;9.90;;;7.10;;
44189;SDS011;29856;52.144;5.430;2023-12-14T12:00:01;10.30;;;7.72;;
44189;SDS011;29856;52.144;5.430;2023-12-14T12:02:27;8.48;;;6.65;;
44189;SDS011;29856;52.144;5.430;2023-12-14T12:04:53;9.50;;;6.88;;
44189;SDS011;29856;52.144;5.430;2023-12-14T12:07:18;8.95;;;5.97;;
44189;SDS011;29856;52.144;5.430;2023-12-14T12:09:44;12.05;;;6.70;;
44189;SDS011;29856;52.144;5.430;2023-12-14T12:12:10;10.98;;;6.75;;
44189;SDS011;29856;52.144;5.430;2023-12-14T12:14:36;9.43;;;6.90;;
44189;SDS011;29856;52.144;5.430;2023-12-14T12:17:03;6.38;;;4.97;;
44189;SDS011;29856;52.144;5.430;2023-12-14T12:19:29;8.82;;;5.85;;
44189;SDS011;29856;52.144;5.430;2023-12-14T12:21:55;9.23;;;6.38;;
44189;SDS011;29856;52.144;5.430;2023-12-14T12:24:21;8.90;;;6.85;;
44189;SDS011;29856;52.144;5.430;2023-12-14T12:26:46;10.95;;;6.57;;
44189;SDS011;29856;52.144;5.430;2023-12-14T12:29:11;10.32;;;6.32;;
44189;SDS011;29856;52.144;5.430;2023-12-14T12:31:37;10.98;;;6.80;;
44189;SDS011;29856;52.144;5.430;2023-12-14T12:34:02;10.20;;;7.00;;
44189;SDS011;29856;52.144;5.430;2023-12-14T12:36:28;9.73;;;6.70;;
44189;SDS011;29856;52.144;5.430;2023-12-14T12:38:53;8.55;;;6.63;;
44189;SDS011;29856;52.144;5.430;2023-12-14T12:41:19;9.65;;;6.78;;
44189;SDS011;29856;52.144;5.430;2023-12-14T12:43:44;10.18;;;6.82;;
44189;SDS011;29856;52.144;5.430;2023-12-14T12:46:10;8.85;;;6.32;;
44189;SDS011;29856;52.144;5.430;2023-12-14T12:48:36;10.32;;;6.97;;
44189;SDS011;29856;52.144;5.430;2023-12-14T12:51:01;7.72;;;6.22;;
44189;SDS011;29856;52.144;5.430;2023-12-14T12:53:27;14.00;;;6.47;;
44189;SDS011;29856;52.144;5.430;2023-12-14T12:55:52;10.02;;;6.60;;
44189;SDS011;29856;52.144;5.430;2023-12-14T12:58:18;9.48;;;6.50;;
44189;SDS011;29856;52.144;5.430;2023-12-14T13:00:43;10.52;;;6.10;;
44189;SDS011;29856;52.144;5.430;2023-12-14T13:03:09;7.75;;;5.93;;
44189;SDS011;29856;52.144;5.430;2023-12-14T13:05:34;9.35;;;5.95;;
44189;SDS011;29856;52.144;5.430;2023-12-14T13:08:00;9.80;;;4.82;;
44189;SDS011;29856;52.144;5.430;2023-12-14T13:10:25;7.70;;;5.75;;
44189;SDS011;29856;52.144;5.430;2023-12-14T13:12:50;8.75;;;6.03;;
44189;SDS011;29856;52.144;5.430;2023-12-14T13:15:16;9.65;;;5.93;;
44189;SDS011;29856;52.144;5.430;2023-12-14T13:17:41;17.58;;;6.60;;
44189;SDS011;29856;52.144;5.430;2023-12-14T13:20:07;15.25;;;6.60;;
44189;SDS011;29856;52.144;5.430;2023-12-14T13:22:32;15.85;;;7.88;;
44189;SDS011;29856;52.144;5.430;2023-12-14T13:24:58;15.00;;;6.47;;
44189;SDS011;29856;52.144;5.430;2023-12-14T13:27:23;9.30;;;5.47;;
44189;SDS011;29856;52.144;5.430;2023-12-14T13:29:49;6.95;;;5.85;;
44189;SDS011;29856;52.144;5.430;2023-12-14T13:32:14;10.30;;;5.28;;
44189;SDS011;29856;52.144;5.430;2023-12-14T13:34:40;6.65;;;4.65;;
44189;SDS011;29856;52.144;5.430;2023-12-14T13:37:05;7.43;;;4.47;;
44189;SDS011;29856;52.144;5.430;2023-12-14T13:39:31;7.10;;;5.15;;
44189;SDS011;29856;52.144;5.430;2023-12-14T13:41:57;11.40;;;5.28;;
44189;SDS011;29856;52.144;5.430;2023-12-14T13:44:23;6.45;;;4.75;;
44189;SDS011;29856;52.144;5.430;2023-12-14T13:46:48;9.20;;;4.82;;
44189;SDS011;29856;52.144;5.430;2023-12-14T13:49:14;10.07;;;4.50;;
44189;SDS011;29856;52.144;5.430;2023-12-14T13:51:39;8.07;;;4.53;;
44189;SDS011;29856;52.144;5.430;2023-12-14T13:54:05;6.47;;;4.82;;
44189;SDS011;29856;52.144;5.430;2023-12-14T13:56:30;9.63;;;4.97;;
44189;SDS011;29856;52.144;5.430;2023-12-14T13:58:56;6.43;;;4.10;;
44189;SDS011;29856;52.144;5.430;2023-12-14T14:01:21;6.93;;;5.03;;
44189;SDS011;29856;52.144;5.430;2023-12-14T14:03:47;8.73;;;4.38;;
44189;SDS011;29856;52.144;5.430;2023-12-14T14:06:12;7.60;;;4.70;;
44189;SDS011;29856;52.144;5.430;2023-12-14T14:08:38;7.22;;;3.72;;
44189;SDS011;29856;52.144;5.430;2023-12-14T14:11:03;9.10;;;4.68;;
44189;SDS011;29856;52.144;5.430;2023-12-14T14:13:29;5.28;;;4.78;;
44189;SDS011;29856;52.144;5.430;2023-12-14T14:15:55;5.75;;;4.22;;
44189;SDS011;29856;52.144;5.430;2023-12-14T14:18:20;8.77;;;4.28;;
44189;SDS011;29856;52.144;5.430;2023-12-14T14:20:46;6.60;;;4.47;;
44189;SDS011;29856;52.144;5.430;2023-12-14T14:23:11;5.60;;;4.43;;
44189;SDS011;29856;52.144;5.430;2023-12-14T14:25:37;8.55;;;4.25;;
44189;SDS011;29856;52.144;5.430;2023-12-14T14:28:02;5.68;;;4.63;;
44189;SDS011;29856;52.144;5.430;2023-12-14T14:30:28;8.95;;;4.95;;
44189;SDS011;29856;52.144;5.430;2023-12-14T14:32:54;6.68;;;4.15;;